sensor_id;sensor_type;location;lat;lon;timestamp;P1;durP1;ratioP1;P2;durP2;ratioP2
14768;SDS011;7476;49.404;11.152;2023-03-03T00:01:56;26.73;;;13.87;;
14768;SDS011;7476;49.404;11.152;2023-03-03T00:04:23;21.87;;;12.13;;
14768;SDS011;7476;49.404;11.152;2023-03-03T00:06:49;24.03;;;12.53;;
14768;SDS011;7476;49.404;11.152;2023-03-03T00:09:16;23.93;;;12.83;;
14768;SDS011;7476;49.404;11.152;2023-03-03T00:11:43;23.63;;;12.90;;
14768;SDS011;7476;49.404;11.152;2023-03-03T00:14:20;22.30;;;13.73;;
14768;SDS011;7476;49.404;11.152;2023-03-03T00:16:50;23.83;;;12.90;;
14768;SDS011;7476;49.404;11.152;2023-03-03T00:19:17;25.37;;;14.07;;
14768;SDS011;7476;49.404;11.152;2023-03-03T00:21:46;24.53;;;13.30;;
14768;SDS011;7476;49.404;11.152;2023-03-03T00:24:14;21.10;;;12.20;;
14768;SDS011;7476;49.404;11.152;2023-03-03T00:26:45;20.57;;;11.87;;
14768;SDS011;7476;49.404;11.152;2023-03-03T00:29:22;23.27;;;12.67;;
14768;SDS011;7476;49.404;11.152;2023-03-03T00:31:54;24.17;;;13.80;;
14768;SDS011;7476;49.404;11.152;2023-03-03T00:34:26;28.10;;;14.60;;
14768;SDS011;7476;49.404;11.152;2023-03-03T00:36:55;21.73;;;13.27;;
14768;SDS011;7476;49.404;11.152;2023-03-03T00:39:25;23.33;;;12.80;;
14768;SDS011;7476;49.404;11.152;2023-03-03T00:41:54;24.53;;;12.90;;
14768;SDS011;7476;49.404;11.152;2023-03-03T00:47:22;28.30;;;12.67;;
14768;SDS011;7476;49.404;11.152;2023-03-03T00:49:50;21.80;;;12.70;;
14768;SDS011;7476;49.404;11.152;2023-03-03T00:52:18;22.77;;;12.70;;
14768;SDS011;7476;49.404;11.152;2023-03-03T00:54:45;25.83;;;13.40;;
14768;SDS011;7476;49.404;11.152;2023-03-03T00:57:11;24.67;;;13.17;;
14768;SDS011;7476;49.404;11.152;2023-03-03T00:59:38;26.07;;;13.10;;
14768;SDS011;7476;49.404;11.152;2023-03-03T01:02:05;20.73;;;12.70;;
14768;SDS011;7476;49.404;11.152;2023-03-03T01:04:33;24.43;;;12.27;;
14768;SDS011;7476;49.404;11.152;2023-03-03T01:07:00;22.90;;;13.13;;
14768;SDS011;7476;49.404;11.152;2023-03-03T01:09:26;25.70;;;13.67;;
14768;SDS011;7476;49.404;11.152;2023-03-03T01:11:53;26.13;;;13.70;;
14768;SDS011;7476;49.404;11.152;2023-03-03T01:14:20;23.70;;;12.83;;
14768;SDS011;7476;49.404;11.152;2023-03-03T01:16:47;28.80;;;14.23;;
14768;SDS011;7476;49.404;11.152;2023-03-03T01:19:14;24.20;;;13.50;;
14768;SDS011;7476;49.404;11.152;2023-03-03T01:21:42;24.43;;;13.97;;
14768;SDS011;7476;49.404;11.152;2023-03-03T01:24:08;25.07;;;13.47;;
14768;SDS011;7476;49.404;11.152;2023-03-03T01:26:35;26.00;;;14.07;;
14768;SDS011;7476;49.404;11.152;2023-03-03T01:29:02;22.37;;;13.03;;
14768;SDS011;7476;49.404;11.152;2023-03-03T01:31:28;25.17;;;13.83;;
14768;SDS011;7476;49.404;11.152;2023-03-03T01:33:55;25.50;;;13.60;;
14768;SDS011;7476;49.404;11.152;2023-03-03T01:36:22;21.93;;;12.70;;
14768;SDS011;7476;49.404;11.152;2023-03-03T01:38:50;21.73;;;13.47;;
14768;SDS011;7476;49.404;11.152;2023-03-03T01:41:17;24.57;;;14.83;;
14768;SDS011;7476;49.404;11.152;2023-03-03T01:43:45;23.57;;;13.90;;
14768;SDS011;7476;49.404;11.152;2023-03-03T01:46:28;25.57;;;13.97;;
14768;SDS011;7476;49.404;11.152;2023-03-03T01:49:10;25.43;;;13.57;;
14768;SDS011;7476;49.404;11.152;2023-03-03T01:51:42;24.73;;;14.60;;
14768;SDS011;7476;49.404;11.152;2023-03-03T01:54:15;24.50;;;13.83;;
14768;SDS011;7476;49.404;11.152;2023-03-03T01:56:44;23.43;;;13.37;;
14768;SDS011;7476;49.404;11.152;2023-03-03T01:59:12;26.90;;;14.23;;
14768;SDS011;7476;49.404;11.152;2023-03-03T02:01:43;22.83;;;14.17;;
14768;SDS011;7476;49.404;11.152;2023-03-03T02:04:12;24.03;;;13.67;;
14768;SDS011;7476;49.404;11.152;2023-03-03T02:06:40;26.97;;;14.47;;
14768;SDS011;7476;49.404;11.152;2023-03-03T02:09:11;25.97;;;14.50;;
14768;SDS011;7476;49.404;11.152;2023-03-03T02:11:43;24.80;;;14.03;;
14768;SDS011;7476;49.404;11.152;2023-03-03T02:14:12;24.63;;;13.70;;
14768;SDS011;7476;49.404;11.152;2023-03-03T02:16:38;24.50;;;14.37;;
14768;SDS011;7476;49.404;11.152;2023-03-03T02:19:07;25.87;;;13.20;;
14768;SDS011;7476;49.404;11.152;2023-03-03T02:21:40;23.73;;;13.97;;
14768;SDS011;7476;49.404;11.152;2023-03-03T02:24:08;25.93;;;13.83;;
14768;SDS011;7476;49.404;11.152;2023-03-03T02:26:42;24.60;;;12.73;;
14768;SDS011;7476;49.404;11.152;2023-03-03T02:29:11;27.67;;;14.77;;
14768;SDS011;7476;49.404;11.152;2023-03-03T02:31:37;29.00;;;14.70;;
14768;SDS011;7476;49.404;11.152;2023-03-03T02:34:04;25.03;;;14.30;;
14768;SDS011;7476;49.404;11.152;2023-03-03T02:36:31;23.77;;;14.33;;
14768;SDS011;7476;49.404;11.152;2023-03-03T02:39:01;26.30;;;14.83;;
14768;SDS011;7476;49.404;11.152;2023-03-03T02:41:32;24.97;;;15.30;;
14768;SDS011;7476;49.404;11.152;2023-03-03T02:44:06;24.83;;;14.97;;
14768;SDS011;7476;49.404;11.152;2023-03-03T02:46:35;26.80;;;14.47;;
14768;SDS011;7476;49.404;11.152;2023-03-03T02:49:03;24.70;;;14.63;;
14768;SDS011;7476;49.404;11.152;2023-03-03T02:51:31;26.40;;;14.53;;
14768;SDS011;7476;49.404;11.152;2023-03-03T02:53:58;24.10;;;14.03;;
14768;SDS011;7476;49.404;11.152;2023-03-03T02:56:25;28.73;;;14.57;;
14768;SDS011;7476;49.404;11.152;2023-03-03T02:58:52;26.37;;;14.40;;
14768;SDS011;7476;49.404;11.152;2023-03-03T03:01:20;27.17;;;15.07;;
14768;SDS011;7476;49.404;11.152;2023-03-03T03:03:47;29.70;;;14.93;;
14768;SDS011;7476;49.404;11.152;2023-03-03T03:06:14;25.43;;;13.73;;
14768;SDS011;7476;49.404;11.152;2023-03-03T03:08:40;25.80;;;14.23;;
14768;SDS011;7476;49.404;11.152;2023-03-03T03:11:07;29.57;;;14.50;;
14768;SDS011;7476;49.404;11.152;2023-03-03T03:13:34;28.50;;;13.43;;
14768;SDS011;7476;49.404;11.152;2023-03-03T03:16:01;27.73;;;14.43;;
14768;SDS011;7476;49.404;11.152;2023-03-03T03:18:29;26.13;;;14.80;;
14768;SDS011;7476;49.404;11.152;2023-03-03T03:20:56;27.50;;;14.80;;
14768;SDS011;7476;49.404;11.152;2023-03-03T03:23:22;27.30;;;15.67;;
14768;SDS011;7476;49.404;11.152;2023-03-03T03:25:49;27.50;;;14.50;;
14768;SDS011;7476;49.404;11.152;2023-03-03T03:28:16;28.27;;;15.10;;
14768;SDS011;7476;49.404;11.152;2023-03-03T03:30:43;25.70;;;15.03;;
14768;SDS011;7476;49.404;11.152;2023-03-03T03:33:10;24.50;;;15.27;;
14768;SDS011;7476;49.404;11.152;2023-03-03T03:35:38;28.07;;;15.17;;
14768;SDS011;7476;49.404;11.152;2023-03-03T03:38:09;26.30;;;14.00;;
14768;SDS011;7476;49.404;11.152;2023-03-03T03:40:36;24.53;;;14.13;;
14768;SDS011;7476;49.404;11.152;2023-03-03T03:43:03;23.23;;;13.07;;
14768;SDS011;7476;49.404;11.152;2023-03-03T03:45:29;26.77;;;15.10;;
14768;SDS011;7476;49.404;11.152;2023-03-03T03:47:57;27.80;;;13.17;;
14768;SDS011;7476;49.404;11.152;2023-03-03T03:50:23;23.83;;;13.77;;
14768;SDS011;7476;49.404;11.152;2023-03-03T03:52:52;26.97;;;13.87;;
14768;SDS011;7476;49.404;11.152;2023-03-03T03:55:18;30.40;;;14.80;;
14768;SDS011;7476;49.404;11.152;2023-03-03T03:57:46;25.53;;;14.80;;
14768;SDS011;7476;49.404;11.152;2023-03-03T04:00:13;22.73;;;13.80;;
14768;SDS011;7476;49.404;11.152;2023-03-03T04:02:40;29.23;;;14.77;;
14768;SDS011;7476;49.404;11.152;2023-03-03T04:05:07;25.87;;;13.90;;
14768;SDS011;7476;49.404;11.152;2023-03-03T04:07:35;28.00;;;14.23;;
14768;SDS011;7476;49.404;11.152;2023-03-03T04:10:03;24.73;;;13.50;;
14768;SDS011;7476;49.404;11.152;2023-03-03T04:12:30;24.47;;;13.93;;
14768;SDS011;7476;49.404;11.152;2023-03-03T04:15:02;23.87;;;13.77;;
14768;SDS011;7476;49.404;11.152;2023-03-03T04:17:30;28.07;;;14.47;;
14768;SDS011;7476;49.404;11.152;2023-03-03T04:19:56;23.43;;;13.03;;
14768;SDS011;7476;49.404;11.152;2023-03-03T04:22:23;26.43;;;13.97;;
14768;SDS011;7476;49.404;11.152;2023-03-03T04:24:50;28.70;;;14.23;;
14768;SDS011;7476;49.404;11.152;2023-03-03T04:27:18;23.63;;;13.33;;
14768;SDS011;7476;49.404;11.152;2023-03-03T04:29:45;23.80;;;12.93;;
14768;SDS011;7476;49.404;11.152;2023-03-03T04:32:12;25.63;;;13.57;;
14768;SDS011;7476;49.404;11.152;2023-03-03T04:34:38;25.53;;;13.73;;
14768;SDS011;7476;49.404;11.152;2023-03-03T04:37:05;27.70;;;14.37;;
14768;SDS011;7476;49.404;11.152;2023-03-03T04:39:32;27.83;;;15.37;;
14768;SDS011;7476;49.404;11.152;2023-03-03T04:41:59;26.67;;;15.00;;
14768;SDS011;7476;49.404;11.152;2023-03-03T04:44:27;26.07;;;14.47;;
14768;SDS011;7476;49.404;11.152;2023-03-03T04:46:53;24.07;;;13.30;;
14768;SDS011;7476;49.404;11.152;2023-03-03T04:49:20;25.10;;;13.43;;
14768;SDS011;7476;49.404;11.152;2023-03-03T04:51:47;25.37;;;13.83;;
14768;SDS011;7476;49.404;11.152;2023-03-03T04:54:13;29.47;;;14.13;;
14768;SDS011;7476;49.404;11.152;2023-03-03T04:56:40;24.50;;;12.97;;
14768;SDS011;7476;49.404;11.152;2023-03-03T04:59:07;27.90;;;15.53;;
14768;SDS011;7476;49.404;11.152;2023-03-03T05:01:35;28.77;;;14.60;;
14768;SDS011;7476;49.404;11.152;2023-03-03T05:04:02;24.30;;;13.97;;
14768;SDS011;7476;49.404;11.152;2023-03-03T05:06:29;24.07;;;13.03;;
14768;SDS011;7476;49.404;11.152;2023-03-03T05:08:55;28.00;;;14.00;;
14768;SDS011;7476;49.404;11.152;2023-03-03T05:11:22;25.23;;;14.13;;
14768;SDS011;7476;49.404;11.152;2023-03-03T05:13:49;24.83;;;13.77;;
14768;SDS011;7476;49.404;11.152;2023-03-03T05:16:16;24.23;;;13.60;;
14768;SDS011;7476;49.404;11.152;2023-03-03T05:18:44;25.60;;;14.57;;
14768;SDS011;7476;49.404;11.152;2023-03-03T05:21:11;26.47;;;13.77;;
14768;SDS011;7476;49.404;11.152;2023-03-03T05:23:38;25.30;;;14.07;;
14768;SDS011;7476;49.404;11.152;2023-03-03T05:26:05;27.13;;;13.97;;
14768;SDS011;7476;49.404;11.152;2023-03-03T05:28:32;27.13;;;14.10;;
14768;SDS011;7476;49.404;11.152;2023-03-03T05:30:58;27.23;;;13.57;;
14768;SDS011;7476;49.404;11.152;2023-03-03T05:33:25;26.67;;;14.17;;
14768;SDS011;7476;49.404;11.152;2023-03-03T05:35:54;29.13;;;14.80;;
14768;SDS011;7476;49.404;11.152;2023-03-03T05:38:21;26.37;;;13.30;;
14768;SDS011;7476;49.404;11.152;2023-03-03T05:40:48;24.20;;;13.50;;
14768;SDS011;7476;49.404;11.152;2023-03-03T05:43:14;25.90;;;14.17;;
14768;SDS011;7476;49.404;11.152;2023-03-03T05:45:41;22.20;;;12.87;;
14768;SDS011;7476;49.404;11.152;2023-03-03T05:48:08;26.97;;;13.97;;
14768;SDS011;7476;49.404;11.152;2023-03-03T05:50:35;23.20;;;13.03;;
14768;SDS011;7476;49.404;11.152;2023-03-03T05:53:03;24.70;;;13.40;;
14768;SDS011;7476;49.404;11.152;2023-03-03T05:55:30;25.87;;;13.90;;
14768;SDS011;7476;49.404;11.152;2023-03-03T05:57:57;23.70;;;12.33;;
14768;SDS011;7476;49.404;11.152;2023-03-03T06:00:24;24.17;;;13.70;;
14768;SDS011;7476;49.404;11.152;2023-03-03T06:02:51;22.97;;;13.13;;
14768;SDS011;7476;49.404;11.152;2023-03-03T06:05:17;22.37;;;13.50;;
14768;SDS011;7476;49.404;11.152;2023-03-03T06:07:44;25.30;;;13.13;;
14768;SDS011;7476;49.404;11.152;2023-03-03T06:10:12;25.07;;;14.17;;
14768;SDS011;7476;49.404;11.152;2023-03-03T06:12:39;25.60;;;13.67;;
14768;SDS011;7476;49.404;11.152;2023-03-03T06:15:06;26.73;;;13.80;;
14768;SDS011;7476;49.404;11.152;2023-03-03T06:17:34;25.13;;;14.37;;
14768;SDS011;7476;49.404;11.152;2023-03-03T06:20:01;22.73;;;13.73;;
14768;SDS011;7476;49.404;11.152;2023-03-03T06:22:28;25.53;;;13.97;;
14768;SDS011;7476;49.404;11.152;2023-03-03T06:24:55;28.50;;;14.73;;
14768;SDS011;7476;49.404;11.152;2023-03-03T06:27:23;24.67;;;14.07;;
14768;SDS011;7476;49.404;11.152;2023-03-03T06:29:50;27.23;;;15.10;;
14768;SDS011;7476;49.404;11.152;2023-03-03T06:32:17;26.50;;;14.17;;
14768;SDS011;7476;49.404;11.152;2023-03-03T06:34:43;28.50;;;15.17;;
14768;SDS011;7476;49.404;11.152;2023-03-03T06:37:10;27.97;;;14.30;;
14768;SDS011;7476;49.404;11.152;2023-03-03T06:39:37;24.27;;;14.53;;
14768;SDS011;7476;49.404;11.152;2023-03-03T06:42:04;26.97;;;15.20;;
14768;SDS011;7476;49.404;11.152;2023-03-03T06:44:32;27.47;;;16.07;;
14768;SDS011;7476;49.404;11.152;2023-03-03T06:46:59;23.33;;;14.97;;
14768;SDS011;7476;49.404;11.152;2023-03-03T06:49:26;29.50;;;15.83;;
14768;SDS011;7476;49.404;11.152;2023-03-03T06:51:52;28.00;;;16.23;;
14768;SDS011;7476;49.404;11.152;2023-03-03T06:54:20;26.63;;;16.27;;
14768;SDS011;7476;49.404;11.152;2023-03-03T06:56:52;28.23;;;16.17;;
14768;SDS011;7476;49.404;11.152;2023-03-03T06:59:25;28.57;;;17.20;;
14768;SDS011;7476;49.404;11.152;2023-03-03T07:01:54;29.47;;;17.10;;
14768;SDS011;7476;49.404;11.152;2023-03-03T07:04:23;30.70;;;18.90;;
14768;SDS011;7476;49.404;11.152;2023-03-03T07:06:54;30.47;;;18.70;;
14768;SDS011;7476;49.404;11.152;2023-03-03T07:09:23;30.13;;;18.37;;
14768;SDS011;7476;49.404;11.152;2023-03-03T07:11:51;31.47;;;19.10;;
14768;SDS011;7476;49.404;11.152;2023-03-03T07:14:19;29.07;;;17.77;;
14768;SDS011;7476;49.404;11.152;2023-03-03T07:16:46;28.93;;;18.40;;
14768;SDS011;7476;49.404;11.152;2023-03-03T07:19:22;30.40;;;18.70;;
14768;SDS011;7476;49.404;11.152;2023-03-03T07:21:57;27.33;;;18.07;;
14768;SDS011;7476;49.404;11.152;2023-03-03T07:24:24;28.93;;;17.83;;
14768;SDS011;7476;49.404;11.152;2023-03-03T07:26:53;29.83;;;17.67;;
14768;SDS011;7476;49.404;11.152;2023-03-03T07:29:25;30.93;;;18.57;;
14768;SDS011;7476;49.404;11.152;2023-03-03T07:31:54;28.47;;;17.37;;
14768;SDS011;7476;49.404;11.152;2023-03-03T07:34:23;27.73;;;17.33;;
14768;SDS011;7476;49.404;11.152;2023-03-03T07:36:56;26.67;;;16.80;;
14768;SDS011;7476;49.404;11.152;2023-03-03T07:39:30;29.30;;;18.20;;
14768;SDS011;7476;49.404;11.152;2023-03-03T07:42:20;30.00;;;17.57;;
14768;SDS011;7476;49.404;11.152;2023-03-03T07:44:49;33.90;;;17.63;;
14768;SDS011;7476;49.404;11.152;2023-03-03T07:47:18;32.70;;;18.00;;
14768;SDS011;7476;49.404;11.152;2023-03-03T07:49:47;28.43;;;18.23;;
14768;SDS011;7476;49.404;11.152;2023-03-03T07:52:22;29.33;;;17.80;;
14768;SDS011;7476;49.404;11.152;2023-03-03T07:54:51;31.80;;;19.53;;
14768;SDS011;7476;49.404;11.152;2023-03-03T07:57:21;30.67;;;18.37;;
14768;SDS011;7476;49.404;11.152;2023-03-03T07:59:50;31.73;;;19.27;;
14768;SDS011;7476;49.404;11.152;2023-03-03T08:02:36;30.73;;;18.33;;
14768;SDS011;7476;49.404;11.152;2023-03-03T08:05:21;34.83;;;18.13;;
14768;SDS011;7476;49.404;11.152;2023-03-03T08:07:54;30.97;;;17.50;;
14768;SDS011;7476;49.404;11.152;2023-03-03T08:10:34;31.10;;;18.83;;
14768;SDS011;7476;49.404;11.152;2023-03-03T08:13:08;31.10;;;18.80;;
14768;SDS011;7476;49.404;11.152;2023-03-03T08:15:42;29.20;;;17.77;;
14768;SDS011;7476;49.404;11.152;2023-03-03T08:18:14;26.27;;;16.97;;
14768;SDS011;7476;49.404;11.152;2023-03-03T08:20:58;28.40;;;17.47;;
14768;SDS011;7476;49.404;11.152;2023-03-03T08:23:26;26.80;;;16.77;;
14768;SDS011;7476;49.404;11.152;2023-03-03T08:25:52;25.10;;;17.20;;
14768;SDS011;7476;49.404;11.152;2023-03-03T08:28:20;25.10;;;16.40;;
14768;SDS011;7476;49.404;11.152;2023-03-03T08:30:47;27.57;;;17.80;;
14768;SDS011;7476;49.404;11.152;2023-03-03T08:33:15;28.17;;;17.73;;
14768;SDS011;7476;49.404;11.152;2023-03-03T08:35:42;25.60;;;17.57;;
14768;SDS011;7476;49.404;11.152;2023-03-03T08:38:10;26.77;;;17.00;;
14768;SDS011;7476;49.404;11.152;2023-03-03T08:40:38;28.10;;;17.77;;
14768;SDS011;7476;49.404;11.152;2023-03-03T08:43:05;26.13;;;17.43;;
14768;SDS011;7476;49.404;11.152;2023-03-03T08:45:32;24.97;;;17.40;;
14768;SDS011;7476;49.404;11.152;2023-03-03T08:47:59;25.73;;;16.40;;
14768;SDS011;7476;49.404;11.152;2023-03-03T08:50:27;23.33;;;15.90;;
14768;SDS011;7476;49.404;11.152;2023-03-03T08:52:55;25.73;;;16.83;;
14768;SDS011;7476;49.404;11.152;2023-03-03T08:55:23;28.03;;;17.27;;
14768;SDS011;7476;49.404;11.152;2023-03-03T08:57:50;28.60;;;17.40;;
14768;SDS011;7476;49.404;11.152;2023-03-03T09:00:17;26.33;;;17.37;;
14768;SDS011;7476;49.404;11.152;2023-03-03T09:02:44;25.13;;;17.50;;
14768;SDS011;7476;49.404;11.152;2023-03-03T09:05:11;27.33;;;17.73;;
14768;SDS011;7476;49.404;11.152;2023-03-03T09:07:39;30.03;;;17.70;;
14768;SDS011;7476;49.404;11.152;2023-03-03T09:10:07;27.77;;;16.77;;
14768;SDS011;7476;49.404;11.152;2023-03-03T09:12:37;28.83;;;18.47;;
14768;SDS011;7476;49.404;11.152;2023-03-03T09:15:15;29.00;;;18.63;;
14768;SDS011;7476;49.404;11.152;2023-03-03T09:17:46;27.07;;;16.97;;
14768;SDS011;7476;49.404;11.152;2023-03-03T09:20:24;30.87;;;18.10;;
14768;SDS011;7476;49.404;11.152;2023-03-03T09:22:56;27.67;;;16.63;;
14768;SDS011;7476;49.404;11.152;2023-03-03T09:25:26;25.23;;;16.63;;
14768;SDS011;7476;49.404;11.152;2023-03-03T09:27:59;29.80;;;18.50;;
14768;SDS011;7476;49.404;11.152;2023-03-03T09:30:37;30.40;;;17.70;;
14768;SDS011;7476;49.404;11.152;2023-03-03T09:33:16;30.00;;;17.50;;
14768;SDS011;7476;49.404;11.152;2023-03-03T09:35:50;24.90;;;17.23;;
14768;SDS011;7476;49.404;11.152;2023-03-03T09:38:26;26.70;;;17.03;;
14768;SDS011;7476;49.404;11.152;2023-03-03T09:40:57;25.07;;;17.27;;
14768;SDS011;7476;49.404;11.152;2023-03-03T09:43:39;26.60;;;17.83;;
14768;SDS011;7476;49.404;11.152;2023-03-03T09:46:15;25.57;;;17.87;;
14768;SDS011;7476;49.404;11.152;2023-03-03T09:48:56;24.97;;;17.50;;
14768;SDS011;7476;49.404;11.152;2023-03-03T09:51:37;26.50;;;17.77;;
14768;SDS011;7476;49.404;11.152;2023-03-03T09:54:21;28.13;;;18.30;;
14768;SDS011;7476;49.404;11.152;2023-03-03T09:56:58;27.10;;;16.23;;
14768;SDS011;7476;49.404;11.152;2023-03-03T09:59:36;20.00;;;15.43;;
14768;SDS011;7476;49.404;11.152;2023-03-03T10:02:21;30.10;;;17.60;;
14768;SDS011;7476;49.404;11.152;2023-03-03T10:04:57;25.33;;;16.30;;
14768;SDS011;7476;49.404;11.152;2023-03-03T10:07:38;29.20;;;16.93;;
14768;SDS011;7476;49.404;11.152;2023-03-03T10:13:07;21.40;;;14.93;;
14768;SDS011;7476;49.404;11.152;2023-03-03T10:15:51;23.80;;;15.67;;
14768;SDS011;7476;49.404;11.152;2023-03-03T10:18:31;23.47;;;15.23;;
14768;SDS011;7476;49.404;11.152;2023-03-03T10:21:08;25.07;;;16.13;;
14768;SDS011;7476;49.404;11.152;2023-03-03T10:23:42;24.27;;;15.30;;
14768;SDS011;7476;49.404;11.152;2023-03-03T10:26:20;24.10;;;15.47;;
14768;SDS011;7476;49.404;11.152;2023-03-03T10:29:07;24.90;;;16.13;;
14768;SDS011;7476;49.404;11.152;2023-03-03T10:31:45;26.97;;;16.40;;
14768;SDS011;7476;49.404;11.152;2023-03-03T10:34:24;26.63;;;16.50;;
14768;SDS011;7476;49.404;11.152;2023-03-03T10:37:04;25.50;;;15.90;;
14768;SDS011;7476;49.404;11.152;2023-03-03T10:39:42;24.80;;;16.97;;
14768;SDS011;7476;49.404;11.152;2023-03-03T10:42:25;24.10;;;15.23;;
14768;SDS011;7476;49.404;11.152;2023-03-03T10:45:19;22.10;;;14.50;;
14768;SDS011;7476;49.404;11.152;2023-03-03T10:48:07;23.27;;;13.90;;
14768;SDS011;7476;49.404;11.152;2023-03-03T10:50:53;22.80;;;14.87;;
14768;SDS011;7476;49.404;11.152;2023-03-03T10:53:26;21.20;;;14.47;;
14768;SDS011;7476;49.404;11.152;2023-03-03T10:56:08;22.83;;;14.90;;
14768;SDS011;7476;49.404;11.152;2023-03-03T10:58:52;26.10;;;15.57;;
14768;SDS011;7476;49.404;11.152;2023-03-03T11:01:28;22.17;;;15.10;;
14768;SDS011;7476;49.404;11.152;2023-03-03T11:04:08;23.03;;;14.97;;
14768;SDS011;7476;49.404;11.152;2023-03-03T11:06:50;20.93;;;14.23;;
14768;SDS011;7476;49.404;11.152;2023-03-03T11:09:30;20.50;;;15.03;;
14768;SDS011;7476;49.404;11.152;2023-03-03T11:12:23;24.37;;;15.07;;
14768;SDS011;7476;49.404;11.152;2023-03-03T11:15:03;22.27;;;14.47;;
14768;SDS011;7476;49.404;11.152;2023-03-03T11:17:47;21.90;;;14.53;;
14768;SDS011;7476;49.404;11.152;2023-03-03T11:20:26;20.03;;;14.73;;
14768;SDS011;7476;49.404;11.152;2023-03-03T11:23:00;20.07;;;14.33;;
14768;SDS011;7476;49.404;11.152;2023-03-03T11:25:42;22.53;;;14.83;;
14768;SDS011;7476;49.404;11.152;2023-03-03T11:28:20;24.40;;;16.90;;
14768;SDS011;7476;49.404;11.152;2023-03-03T11:33:46;23.50;;;16.50;;
14768;SDS011;7476;49.404;11.152;2023-03-03T11:36:22;23.23;;;17.30;;
14768;SDS011;7476;49.404;11.152;2023-03-03T11:38:53;24.87;;;16.57;;
14768;SDS011;7476;49.404;11.152;2023-03-03T11:41:31;24.73;;;17.10;;
14768;SDS011;7476;49.404;11.152;2023-03-03T11:44:03;24.07;;;17.10;;
14768;SDS011;7476;49.404;11.152;2023-03-03T11:46:37;25.57;;;17.10;;
14768;SDS011;7476;49.404;11.152;2023-03-03T11:49:08;23.70;;;17.27;;
14768;SDS011;7476;49.404;11.152;2023-03-03T11:51:43;26.80;;;18.17;;
14768;SDS011;7476;49.404;11.152;2023-03-03T11:54:17;22.97;;;16.60;;
14768;SDS011;7476;49.404;11.152;2023-03-03T11:56:48;25.43;;;17.97;;
14768;SDS011;7476;49.404;11.152;2023-03-03T12:02:28;23.53;;;17.40;;
14768;SDS011;7476;49.404;11.152;2023-03-03T12:05:10;23.70;;;17.13;;
14768;SDS011;7476;49.404;11.152;2023-03-03T12:07:44;24.30;;;16.83;;
14768;SDS011;7476;49.404;11.152;2023-03-03T12:10:21;22.57;;;16.13;;
14768;SDS011;7476;49.404;11.152;2023-03-03T12:12:56;22.30;;;16.43;;
14768;SDS011;7476;49.404;11.152;2023-03-03T12:15:28;22.63;;;16.17;;
14768;SDS011;7476;49.404;11.152;2023-03-03T12:18:08;23.13;;;16.30;;
14768;SDS011;7476;49.404;11.152;2023-03-03T12:20:58;20.57;;;15.17;;
14768;SDS011;7476;49.404;11.152;2023-03-03T12:23:43;21.90;;;15.67;;
14768;SDS011;7476;49.404;11.152;2023-03-03T12:26:19;23.30;;;16.07;;
14768;SDS011;7476;49.404;11.152;2023-03-03T12:28:51;20.53;;;15.43;;
14768;SDS011;7476;49.404;11.152;2023-03-03T12:31:26;22.73;;;15.87;;
14768;SDS011;7476;49.404;11.152;2023-03-03T12:34:01;21.03;;;14.70;;
14768;SDS011;7476;49.404;11.152;2023-03-03T12:36:44;19.90;;;15.20;;
14768;SDS011;7476;49.404;11.152;2023-03-03T12:39:21;24.60;;;16.13;;
14768;SDS011;7476;49.404;11.152;2023-03-03T12:41:56;20.30;;;15.37;;
14768;SDS011;7476;49.404;11.152;2023-03-03T12:44:28;19.77;;;15.93;;
14768;SDS011;7476;49.404;11.152;2023-03-03T12:47:00;20.73;;;15.40;;
14768;SDS011;7476;49.404;11.152;2023-03-03T12:49:34;20.53;;;15.40;;
14768;SDS011;7476;49.404;11.152;2023-03-03T12:52:11;21.17;;;15.10;;
14768;SDS011;7476;49.404;11.152;2023-03-03T12:54:50;22.33;;;15.87;;
14768;SDS011;7476;49.404;11.152;2023-03-03T12:57:28;22.67;;;16.13;;
14768;SDS011;7476;49.404;11.152;2023-03-03T13:00:18;19.13;;;14.97;;
14768;SDS011;7476;49.404;11.152;2023-03-03T13:02:52;20.30;;;14.57;;
14768;SDS011;7476;49.404;11.152;2023-03-03T13:05:26;21.23;;;14.97;;
14768;SDS011;7476;49.404;11.152;2023-03-03T13:08:02;19.70;;;14.97;;
14768;SDS011;7476;49.404;11.152;2023-03-03T13:10:44;20.40;;;13.77;;
14768;SDS011;7476;49.404;11.152;2023-03-03T13:13:17;19.40;;;14.77;;
14768;SDS011;7476;49.404;11.152;2023-03-03T13:15:52;18.40;;;14.60;;
14768;SDS011;7476;49.404;11.152;2023-03-03T13:18:28;19.27;;;14.43;;
14768;SDS011;7476;49.404;11.152;2023-03-03T13:21:04;19.77;;;15.07;;
14768;SDS011;7476;49.404;11.152;2023-03-03T13:23:39;18.90;;;14.67;;
14768;SDS011;7476;49.404;11.152;2023-03-03T13:26:15;17.57;;;14.23;;
14768;SDS011;7476;49.404;11.152;2023-03-03T13:28:55;20.73;;;15.03;;
14768;SDS011;7476;49.404;11.152;2023-03-03T13:31:28;17.53;;;13.80;;
14768;SDS011;7476;49.404;11.152;2023-03-03T13:33:58;19.53;;;14.07;;
14768;SDS011;7476;49.404;11.152;2023-03-03T13:36:27;20.97;;;14.73;;
14768;SDS011;7476;49.404;11.152;2023-03-03T13:39:00;19.13;;;13.90;;
14768;SDS011;7476;49.404;11.152;2023-03-03T13:41:34;19.07;;;14.83;;
14768;SDS011;7476;49.404;11.152;2023-03-03T13:44:11;19.40;;;13.60;;
14768;SDS011;7476;49.404;11.152;2023-03-03T13:46:45;20.83;;;14.23;;
14768;SDS011;7476;49.404;11.152;2023-03-03T13:49:26;18.67;;;14.10;;
14768;SDS011;7476;49.404;11.152;2023-03-03T13:52:09;16.80;;;13.57;;
14768;SDS011;7476;49.404;11.152;2023-03-03T13:54:45;16.53;;;12.90;;
14768;SDS011;7476;49.404;11.152;2023-03-03T13:57:27;17.10;;;12.87;;
14768;SDS011;7476;49.404;11.152;2023-03-03T14:00:18;17.83;;;13.07;;
14768;SDS011;7476;49.404;11.152;2023-03-03T14:02:57;19.53;;;13.87;;
14768;SDS011;7476;49.404;11.152;2023-03-03T14:05:37;17.47;;;13.53;;
14768;SDS011;7476;49.404;11.152;2023-03-03T14:08:08;19.40;;;12.77;;
14768;SDS011;7476;49.404;11.152;2023-03-03T14:10:43;16.00;;;12.47;;
14768;SDS011;7476;49.404;11.152;2023-03-03T14:13:16;16.07;;;12.87;;
14768;SDS011;7476;49.404;11.152;2023-03-03T14:15:49;15.30;;;12.43;;
14768;SDS011;7476;49.404;11.152;2023-03-03T14:18:23;15.73;;;12.27;;
14768;SDS011;7476;49.404;11.152;2023-03-03T14:20:54;15.67;;;12.60;;
14768;SDS011;7476;49.404;11.152;2023-03-03T14:23:24;16.90;;;13.47;;
14768;SDS011;7476;49.404;11.152;2023-03-03T14:25:58;16.80;;;12.37;;
14768;SDS011;7476;49.404;11.152;2023-03-03T14:28:38;17.93;;;12.87;;
14768;SDS011;7476;49.404;11.152;2023-03-03T14:31:14;15.73;;;11.77;;
14768;SDS011;7476;49.404;11.152;2023-03-03T14:33:55;17.60;;;11.87;;
14768;SDS011;7476;49.404;11.152;2023-03-03T14:36:27;15.20;;;11.70;;
14768;SDS011;7476;49.404;11.152;2023-03-03T14:38:57;16.67;;;12.30;;
14768;SDS011;7476;49.404;11.152;2023-03-03T14:41:33;16.17;;;11.37;;
14768;SDS011;7476;49.404;11.152;2023-03-03T14:47:00;16.37;;;11.80;;
14768;SDS011;7476;49.404;11.152;2023-03-03T14:49:46;14.63;;;11.13;;
14768;SDS011;7476;49.404;11.152;2023-03-03T14:52:19;14.40;;;10.80;;
14768;SDS011;7476;49.404;11.152;2023-03-03T14:54:49;15.10;;;11.23;;
14768;SDS011;7476;49.404;11.152;2023-03-03T14:57:18;15.67;;;11.93;;
14768;SDS011;7476;49.404;11.152;2023-03-03T14:59:57;15.00;;;11.20;;
14768;SDS011;7476;49.404;11.152;2023-03-03T15:02:30;14.40;;;10.50;;